Terminal Aerodrome Forecast
Issued by NWS Tampa Bay Area, FL

Home | Current Version | Previous Version | Text Only | Print | Product List | Glossary Off
Versions: 1 2 3 4 5 6 7 8 9 10 11 12 13 14 15 16 17 18 19

000
FTUS42 KTBW 312100 AAA
TAFSRQ
TAF AMD
KSRQ 312101Z 3121/0118 VRB06KT P6SM VCTS SCT045CB BKN150
      TEMPO 3121/3123 VRB15G25KT 3SM TSRA SCT010 BKN025CB
     FM010100 11005KT P6SM FEW030 SCT150 SCT250
     FM011400 12008KT P6SM SCT025 SCT100=

USA.gov is the U.S. government's official web portal to all federal, state and local government web resources and services.